sensor_id;sensor_type;location;lat;lon;timestamp;noise_LAeq;noise_LA_min;noise_LA_max;noise_LA01;noise_LA95
66450;Laerm;56829;52.274;4.770;2023-07-16T00:00:03;42.98;35.76;50.83;;
66450;Laerm;56829;52.274;4.770;2023-07-16T00:00:14;37.58;35.61;41.70;;
66450;Laerm;56829;52.274;4.770;2023-07-16T00:00:25;37.72;35.27;41.89;;
66450;Laerm;56829;52.274;4.770;2023-07-16T00:00:35;38.25;35.37;48.96;;
66450;Laerm;56829;52.274;4.770;2023-07-16T00:00:45;36.82;34.63;41.37;;
66450;Laerm;56829;52.274;4.770;2023-07-16T00:00:56;37.80;35.82;41.44;;
66450;Laerm;56829;52.274;4.770;2023-07-16T00:01:06;37.24;34.66;41.38;;
66450;Laerm;56829;52.274;4.770;2023-07-16T00:01:16;35.19;32.67;37.84;;
66450;Laerm;56829;52.274;4.770;2023-07-16T00:01:26;35.37;33.49;38.09;;
66450;Laerm;56829;52.274;4.770;2023-07-16T00:01:36;36.27;33.70;42.65;;
66450;Laerm;56829;52.274;4.770;2023-07-16T00:01:47;36.20;34.41;38.49;;
66450;Laerm;56829;52.274;4.770;2023-07-16T00:01:57;37.55;35.05;42.08;;
66450;Laerm;56829;52.274;4.770;2023-07-16T00:02:07;35.88;33.86;40.24;;
66450;Laerm;56829;52.274;4.770;2023-07-16T00:02:17;37.86;34.81;43.46;;
66450;Laerm;56829;52.274;4.770;2023-07-16T00:02:27;37.52;35.22;40.60;;
66450;Laerm;56829;52.274;4.770;2023-07-16T00:02:38;37.82;35.35;43.18;;
66450;Laerm;56829;52.274;4.770;2023-07-16T00:02:48;36.66;34.75;39.33;;
66450;Laerm;56829;52.274;4.770;2023-07-16T00:02:58;37.13;35.04;41.26;;
66450;Laerm;56829;52.274;4.770;2023-07-16T00:03:08;40.64;36.98;44.41;;
66450;Laerm;56829;52.274;4.770;2023-07-16T00:03:19;49.21;43.19;54.88;;
66450;Laerm;56829;52.274;4.770;2023-07-16T00:03:29;46.92;36.33;54.86;;
66450;Laerm;56829;52.274;4.770;2023-07-16T00:03:39;37.05;34.54;38.99;;
66450;Laerm;56829;52.274;4.770;2023-07-16T00:03:49;36.13;34.14;38.39;;
66450;Laerm;56829;52.274;4.770;2023-07-16T00:04:00;37.21;34.92;42.50;;
66450;Laerm;56829;52.274;4.770;2023-07-16T00:04:10;39.93;36.72;45.95;;
66450;Laerm;56829;52.274;4.770;2023-07-16T00:04:20;40.52;34.27;48.42;;
66450;Laerm;56829;52.274;4.770;2023-07-16T00:04:31;40.46;33.89;47.06;;
66450;Laerm;56829;52.274;4.770;2023-07-16T00:04:41;39.10;33.77;46.73;;
66450;Laerm;56829;52.274;4.770;2023-07-16T00:04:51;37.07;34.33;40.76;;
66450;Laerm;56829;52.274;4.770;2023-07-16T00:05:02;37.27;35.05;45.79;;
66450;Laerm;56829;52.274;4.770;2023-07-16T00:05:13;35.34;33.07;37.44;;
66450;Laerm;56829;52.274;4.770;2023-07-16T00:05:23;35.51;33.48;40.62;;
66450;Laerm;56829;52.274;4.770;2023-07-16T00:05:34;34.85;33.10;38.74;;
66450;Laerm;56829;52.274;4.770;2023-07-16T00:05:44;35.79;33.64;37.71;;
66450;Laerm;56829;52.274;4.770;2023-07-16T00:05:54;36.05;34.10;39.44;;
66450;Laerm;56829;52.274;4.770;2023-07-16T00:06:05;36.99;34.79;39.97;;
66450;Laerm;56829;52.274;4.770;2023-07-16T00:06:15;38.41;35.01;45.03;;
66450;Laerm;56829;52.274;4.770;2023-07-16T00:06:25;40.38;36.17;46.74;;
66450;Laerm;56829;52.274;4.770;2023-07-16T00:06:35;44.84;39.99;51.06;;
66450;Laerm;56829;52.274;4.770;2023-07-16T00:06:45;48.64;39.23;56.80;;
66450;Laerm;56829;52.274;4.770;2023-07-16T00:06:55;41.02;35.56;48.01;;
66450;Laerm;56829;52.274;4.770;2023-07-16T00:07:06;38.10;33.90;44.05;;
66450;Laerm;56829;52.274;4.770;2023-07-16T00:07:16;36.62;34.28;43.73;;
66450;Laerm;56829;52.274;4.770;2023-07-16T00:07:27;35.77;33.86;38.51;;
66450;Laerm;56829;52.274;4.770;2023-07-16T00:07:37;37.70;33.42;43.27;;
66450;Laerm;56829;52.274;4.770;2023-07-16T00:07:47;49.91;40.34;58.56;;
66450;Laerm;56829;52.274;4.770;2023-07-16T00:07:57;38.38;34.45;44.42;;
66450;Laerm;56829;52.274;4.770;2023-07-16T00:08:08;35.53;33.48;39.24;;
66450;Laerm;56829;52.274;4.770;2023-07-16T00:08:18;35.82;33.48;40.10;;
66450;Laerm;56829;52.274;4.770;2023-07-16T00:08:28;36.34;33.34;41.83;;
66450;Laerm;56829;52.274;4.770;2023-07-16T00:08:38;38.20;35.02;44.87;;
66450;Laerm;56829;52.274;4.770;2023-07-16T00:08:49;47.94;41.07;55.10;;
66450;Laerm;56829;52.274;4.770;2023-07-16T00:08:59;42.07;36.28;48.39;;
66450;Laerm;56829;52.274;4.770;2023-07-16T00:09:09;40.33;35.26;48.91;;
66450;Laerm;56829;52.274;4.770;2023-07-16T00:09:19;40.76;36.33;46.45;;
66450;Laerm;56829;52.274;4.770;2023-07-16T00:09:29;42.70;37.08;49.35;;
66450;Laerm;56829;52.274;4.770;2023-07-16T00:09:40;38.20;34.09;43.29;;
66450;Laerm;56829;52.274;4.770;2023-07-16T00:09:50;37.27;33.98;44.29;;
66450;Laerm;56829;52.274;4.770;2023-07-16T00:10:00;35.54;32.18;40.73;;
66450;Laerm;56829;52.274;4.770;2023-07-16T00:10:10;34.89;33.12;37.46;;
66450;Laerm;56829;52.274;4.770;2023-07-16T00:10:20;34.58;32.96;37.62;;
66450;Laerm;56829;52.274;4.770;2023-07-16T00:10:34;35.57;32.64;44.86;;
66450;Laerm;56829;52.274;4.770;2023-07-16T00:10:44;40.60;34.05;48.38;;
66450;Laerm;56829;52.274;4.770;2023-07-16T00:10:54;41.75;34.00;48.65;;
66450;Laerm;56829;52.274;4.770;2023-07-16T00:11:05;41.10;34.75;48.90;;
66450;Laerm;56829;52.274;4.770;2023-07-16T00:11:15;42.02;35.70;49.42;;
66450;Laerm;56829;52.274;4.770;2023-07-16T00:11:25;42.69;35.75;49.71;;
66450;Laerm;56829;52.274;4.770;2023-07-16T00:11:35;42.71;37.38;48.30;;
66450;Laerm;56829;52.274;4.770;2023-07-16T00:11:45;43.48;36.53;49.70;;
66450;Laerm;56829;52.274;4.770;2023-07-16T00:11:56;41.22;36.42;49.36;;
66450;Laerm;56829;52.274;4.770;2023-07-16T00:12:07;50.69;38.52;63.47;;
66450;Laerm;56829;52.274;4.770;2023-07-16T00:12:17;38.94;36.17;42.86;;
66450;Laerm;56829;52.274;4.770;2023-07-16T00:12:27;39.20;36.23;42.26;;
66450;Laerm;56829;52.274;4.770;2023-07-16T00:12:38;48.86;40.88;58.36;;
66450;Laerm;56829;52.274;4.770;2023-07-16T00:12:48;38.71;34.34;48.83;;
66450;Laerm;56829;52.274;4.770;2023-07-16T00:12:59;36.21;34.24;40.22;;
66450;Laerm;56829;52.274;4.770;2023-07-16T00:13:09;41.85;34.81;58.07;;
66450;Laerm;56829;52.274;4.770;2023-07-16T00:13:19;48.66;37.28;58.71;;
66450;Laerm;56829;52.274;4.770;2023-07-16T00:13:30;41.56;34.42;54.90;;
66450;Laerm;56829;52.274;4.770;2023-07-16T00:13:40;37.08;32.96;51.02;;
66450;Laerm;56829;52.274;4.770;2023-07-16T00:13:56;41.05;33.25;62.12;;
66450;Laerm;56829;52.274;4.770;2023-07-16T00:14:06;40.23;35.45;53.51;;
66450;Laerm;56829;52.274;4.770;2023-07-16T00:14:17;45.31;39.32;56.59;;
66450;Laerm;56829;52.274;4.770;2023-07-16T00:14:27;38.67;35.20;49.58;;
66450;Laerm;56829;52.274;4.770;2023-07-16T00:14:37;39.21;34.16;56.72;;
66450;Laerm;56829;52.274;4.770;2023-07-16T00:14:48;36.99;34.41;45.86;;
66450;Laerm;56829;52.274;4.770;2023-07-16T00:14:58;38.34;33.69;56.46;;
66450;Laerm;56829;52.274;4.770;2023-07-16T00:15:08;37.30;33.91;43.82;;
66450;Laerm;56829;52.274;4.770;2023-07-16T00:15:18;35.98;33.94;39.16;;
66450;Laerm;56829;52.274;4.770;2023-07-16T00:15:29;34.93;32.58;37.46;;
66450;Laerm;56829;52.274;4.770;2023-07-16T00:15:39;35.08;33.24;37.46;;
66450;Laerm;56829;52.274;4.770;2023-07-16T00:15:49;34.11;31.62;36.30;;
66450;Laerm;56829;52.274;4.770;2023-07-16T00:16:00;35.42;32.37;41.43;;
66450;Laerm;56829;52.274;4.770;2023-07-16T00:16:10;40.68;33.92;47.89;;
66450;Laerm;56829;52.274;4.770;2023-07-16T00:16:20;41.95;34.27;50.13;;
66450;Laerm;56829;52.274;4.770;2023-07-16T00:16:31;42.15;32.49;52.12;;
66450;Laerm;56829;52.274;4.770;2023-07-16T00:16:41;37.17;33.09;43.39;;
66450;Laerm;56829;52.274;4.770;2023-07-16T00:16:51;39.53;33.44;47.16;;
66450;Laerm;56829;52.274;4.770;2023-07-16T00:17:01;35.87;32.99;43.53;;
66450;Laerm;56829;52.274;4.770;2023-07-16T00:17:11;36.75;32.81;45.72;;
66450;Laerm;56829;52.274;4.770;2023-07-16T00:17:22;39.70;32.79;49.03;;
66450;Laerm;56829;52.274;4.770;2023-07-16T00:17:35;37.49;33.75;43.37;;
66450;Laerm;56829;52.274;4.770;2023-07-16T00:17:45;39.44;33.71;47.71;;
66450;Laerm;56829;52.274;4.770;2023-07-16T00:17:55;38.10;33.21;50.78;;
66450;Laerm;56829;52.274;4.770;2023-07-16T00:18:05;38.62;33.83;49.13;;
66450;Laerm;56829;52.274;4.770;2023-07-16T00:18:15;41.71;37.64;47.28;;
66450;Laerm;56829;52.274;4.770;2023-07-16T00:18:26;41.46;35.87;48.04;;
66450;Laerm;56829;52.274;4.770;2023-07-16T00:18:36;41.56;35.55;48.15;;
66450;Laerm;56829;52.274;4.770;2023-07-16T00:18:46;40.94;33.29;49.30;;
66450;Laerm;56829;52.274;4.770;2023-07-16T00:18:57;34.76;32.26;40.02;;
66450;Laerm;56829;52.274;4.770;2023-07-16T00:19:09;39.37;33.17;49.09;;
66450;Laerm;56829;52.274;4.770;2023-07-16T00:19:20;42.09;34.35;48.96;;
66450;Laerm;56829;52.274;4.770;2023-07-16T00:19:30;42.12;34.43;55.09;;
66450;Laerm;56829;52.274;4.770;2023-07-16T00:19:40;42.29;34.59;50.99;;
66450;Laerm;56829;52.274;4.770;2023-07-16T00:19:50;41.68;35.07;50.01;;
66450;Laerm;56829;52.274;4.770;2023-07-16T00:20:01;42.36;35.92;51.95;;
66450;Laerm;56829;52.274;4.770;2023-07-16T00:20:11;44.51;38.66;52.51;;
66450;Laerm;56829;52.274;4.770;2023-07-16T00:20:21;51.09;36.64;67.55;;
66450;Laerm;56829;52.274;4.770;2023-07-16T00:20:33;47.31;33.26;59.52;;
66450;Laerm;56829;52.274;4.770;2023-07-16T00:20:43;38.10;33.75;48.55;;
66450;Laerm;56829;52.274;4.770;2023-07-16T00:20:53;42.47;34.86;48.19;;
66450;Laerm;56829;52.274;4.770;2023-07-16T00:21:04;45.83;35.62;53.71;;
66450;Laerm;56829;52.274;4.770;2023-07-16T00:21:14;36.69;34.62;41.89;;
66450;Laerm;56829;52.274;4.770;2023-07-16T00:21:24;39.21;34.74;47.90;;
66450;Laerm;56829;52.274;4.770;2023-07-16T00:21:34;48.62;36.68;59.81;;
66450;Laerm;56829;52.274;4.770;2023-07-16T00:21:44;53.96;41.54;62.95;;
66450;Laerm;56829;52.274;4.770;2023-07-16T00:21:55;48.18;42.63;54.56;;
66450;Laerm;56829;52.274;4.770;2023-07-16T00:22:05;43.14;37.71;49.56;;
66450;Laerm;56829;52.274;4.770;2023-07-16T00:22:15;38.82;34.84;42.49;;
66450;Laerm;56829;52.274;4.770;2023-07-16T00:22:25;37.07;34.18;43.94;;
66450;Laerm;56829;52.274;4.770;2023-07-16T00:22:36;37.83;34.38;44.86;;
66450;Laerm;56829;52.274;4.770;2023-07-16T00:22:48;39.70;35.66;46.74;;
66450;Laerm;56829;52.274;4.770;2023-07-16T00:22:59;42.84;36.29;48.42;;
66450;Laerm;56829;52.274;4.770;2023-07-16T00:23:09;42.47;35.03;48.84;;
66450;Laerm;56829;52.274;4.770;2023-07-16T00:23:19;38.92;34.21;48.47;;
66450;Laerm;56829;52.274;4.770;2023-07-16T00:23:29;41.07;33.71;48.57;;
66450;Laerm;56829;52.274;4.770;2023-07-16T00:23:39;41.31;34.23;47.65;;
66450;Laerm;56829;52.274;4.770;2023-07-16T00:23:50;42.01;34.13;48.18;;
66450;Laerm;56829;52.274;4.770;2023-07-16T00:24:00;40.89;34.56;48.13;;
66450;Laerm;56829;52.274;4.770;2023-07-16T00:24:10;38.48;35.38;43.60;;
66450;Laerm;56829;52.274;4.770;2023-07-16T00:24:20;38.89;35.16;44.93;;
66450;Laerm;56829;52.274;4.770;2023-07-16T00:24:30;49.87;42.37;59.32;;
66450;Laerm;56829;52.274;4.770;2023-07-16T00:24:41;43.27;36.65;48.13;;
66450;Laerm;56829;52.274;4.770;2023-07-16T00:24:51;41.57;35.79;47.40;;
66450;Laerm;56829;52.274;4.770;2023-07-16T00:25:02;42.26;35.86;48.84;;
66450;Laerm;56829;52.274;4.770;2023-07-16T00:25:12;41.41;34.62;48.42;;
66450;Laerm;56829;52.274;4.770;2023-07-16T00:25:23;39.54;34.52;45.09;;
66450;Laerm;56829;52.274;4.770;2023-07-16T00:25:33;39.84;34.70;44.58;;
66450;Laerm;56829;52.274;4.770;2023-07-16T00:25:45;43.85;38.21;50.41;;
66450;Laerm;56829;52.274;4.770;2023-07-16T00:25:55;40.86;37.32;46.43;;
66450;Laerm;56829;52.274;4.770;2023-07-16T00:26:05;38.78;36.50;42.50;;
66450;Laerm;56829;52.274;4.770;2023-07-16T00:26:15;40.32;38.17;43.36;;
66450;Laerm;56829;52.274;4.770;2023-07-16T00:26:26;45.85;38.95;52.59;;
66450;Laerm;56829;52.274;4.770;2023-07-16T00:26:36;41.17;37.00;47.79;;
66450;Laerm;56829;52.274;4.770;2023-07-16T00:26:46;42.74;36.61;49.69;;
66450;Laerm;56829;52.274;4.770;2023-07-16T00:26:57;42.97;36.41;48.97;;
66450;Laerm;56829;52.274;4.770;2023-07-16T00:27:07;41.18;36.10;49.85;;
66450;Laerm;56829;52.274;4.770;2023-07-16T00:27:17;48.22;37.15;57.77;;
66450;Laerm;56829;52.274;4.770;2023-07-16T00:27:28;44.92;39.44;50.50;;
66450;Laerm;56829;52.274;4.770;2023-07-16T00:27:38;49.92;41.10;56.26;;
66450;Laerm;56829;52.274;4.770;2023-07-16T00:27:48;43.79;40.53;47.90;;
66450;Laerm;56829;52.274;4.770;2023-07-16T00:27:58;49.04;43.58;56.21;;
66450;Laerm;56829;52.274;4.770;2023-07-16T00:28:08;43.78;39.19;47.27;;
66450;Laerm;56829;52.274;4.770;2023-07-16T00:28:19;45.40;38.93;54.42;;
66450;Laerm;56829;52.274;4.770;2023-07-16T00:28:29;48.58;41.78;56.16;;
66450;Laerm;56829;52.274;4.770;2023-07-16T00:28:39;44.78;38.32;50.81;;
66450;Laerm;56829;52.274;4.770;2023-07-16T00:28:50;41.86;37.58;47.00;;
66450;Laerm;56829;52.274;4.770;2023-07-16T00:29:00;42.64;37.43;47.62;;
66450;Laerm;56829;52.274;4.770;2023-07-16T00:29:10;42.14;36.77;48.00;;
66450;Laerm;56829;52.274;4.770;2023-07-16T00:29:20;40.43;35.85;48.79;;
66450;Laerm;56829;52.274;4.770;2023-07-16T00:29:30;40.16;35.54;50.61;;
66450;Laerm;56829;52.274;4.770;2023-07-16T00:29:41;40.60;36.42;46.56;;
66450;Laerm;56829;52.274;4.770;2023-07-16T00:29:51;42.41;34.52;49.31;;
66450;Laerm;56829;52.274;4.770;2023-07-16T00:30:01;41.67;35.60;47.79;;
66450;Laerm;56829;52.274;4.770;2023-07-16T00:30:12;40.43;35.71;51.81;;
66450;Laerm;56829;52.274;4.770;2023-07-16T00:30:22;40.35;35.23;48.78;;
66450;Laerm;56829;52.274;4.770;2023-07-16T00:30:32;42.26;35.81;48.29;;
66450;Laerm;56829;52.274;4.770;2023-07-16T00:30:42;42.44;38.60;47.49;;
66450;Laerm;56829;52.274;4.770;2023-07-16T00:30:52;40.77;35.32;47.75;;
66450;Laerm;56829;52.274;4.770;2023-07-16T00:31:03;40.28;36.37;45.53;;
66450;Laerm;56829;52.274;4.770;2023-07-16T00:31:13;47.23;40.51;55.68;;
66450;Laerm;56829;52.274;4.770;2023-07-16T00:31:23;43.19;39.84;47.52;;
66450;Laerm;56829;52.274;4.770;2023-07-16T00:31:33;41.69;35.93;48.35;;
66450;Laerm;56829;52.274;4.770;2023-07-16T00:31:43;42.44;35.88;48.75;;
66450;Laerm;56829;52.274;4.770;2023-07-16T00:31:54;40.17;35.94;48.56;;
66450;Laerm;56829;52.274;4.770;2023-07-16T00:32:04;40.86;36.13;51.01;;
66450;Laerm;56829;52.274;4.770;2023-07-16T00:32:14;40.93;35.58;46.57;;
66450;Laerm;56829;52.274;4.770;2023-07-16T00:32:24;41.16;35.83;51.63;;
66450;Laerm;56829;52.274;4.770;2023-07-16T00:32:34;40.56;35.36;53.26;;
66450;Laerm;56829;52.274;4.770;2023-07-16T00:32:45;39.93;35.77;48.32;;
66450;Laerm;56829;52.274;4.770;2023-07-16T00:32:55;40.53;36.12;45.83;;
66450;Laerm;56829;52.274;4.770;2023-07-16T00:33:05;41.98;38.22;48.95;;
66450;Laerm;56829;52.274;4.770;2023-07-16T00:33:15;41.28;38.55;45.59;;
66450;Laerm;56829;52.274;4.770;2023-07-16T00:33:25;45.55;41.08;51.54;;
66450;Laerm;56829;52.274;4.770;2023-07-16T00:33:36;43.54;38.02;52.18;;
66450;Laerm;56829;52.274;4.770;2023-07-16T00:33:46;43.25;38.57;48.20;;
66450;Laerm;56829;52.274;4.770;2023-07-16T00:33:56;40.42;36.76;45.52;;
66450;Laerm;56829;52.274;4.770;2023-07-16T00:34:06;40.06;36.26;46.33;;
66450;Laerm;56829;52.274;4.770;2023-07-16T00:34:16;45.30;37.60;49.93;;
66450;Laerm;56829;52.274;4.770;2023-07-16T00:34:27;47.64;42.60;54.43;;
66450;Laerm;56829;52.274;4.770;2023-07-16T00:34:37;44.30;39.07;50.19;;
66450;Laerm;56829;52.274;4.770;2023-07-16T00:34:47;42.67;37.96;49.71;;
66450;Laerm;56829;52.274;4.770;2023-07-16T00:34:57;40.38;37.73;48.64;;
66450;Laerm;56829;52.274;4.770;2023-07-16T00:35:07;42.30;37.08;50.19;;
66450;Laerm;56829;52.274;4.770;2023-07-16T00:35:18;42.14;36.75;49.83;;
66450;Laerm;56829;52.274;4.770;2023-07-16T00:35:28;44.33;37.75;49.36;;
66450;Laerm;56829;52.274;4.770;2023-07-16T00:35:38;42.39;38.32;48.96;;
66450;Laerm;56829;52.274;4.770;2023-07-16T00:35:49;42.10;39.50;44.58;;
66450;Laerm;56829;52.274;4.770;2023-07-16T00:36:00;51.52;43.25;60.62;;
66450;Laerm;56829;52.274;4.770;2023-07-16T00:36:10;42.36;39.23;46.27;;
66450;Laerm;56829;52.274;4.770;2023-07-16T00:36:20;45.29;39.71;57.30;;
66450;Laerm;56829;52.274;4.770;2023-07-16T00:36:30;46.60;42.07;50.62;;
66450;Laerm;56829;52.274;4.770;2023-07-16T00:36:40;39.87;36.90;48.00;;
66450;Laerm;56829;52.274;4.770;2023-07-16T00:36:51;39.32;37.89;41.04;;
66450;Laerm;56829;52.274;4.770;2023-07-16T00:37:01;37.37;34.61;42.56;;
66450;Laerm;56829;52.274;4.770;2023-07-16T00:37:13;37.65;34.46;43.74;;
66450;Laerm;56829;52.274;4.770;2023-07-16T00:37:23;39.68;34.72;46.79;;
66450;Laerm;56829;52.274;4.770;2023-07-16T00:37:33;41.26;35.79;50.45;;
66450;Laerm;56829;52.274;4.770;2023-07-16T00:37:44;39.27;36.11;47.51;;
66450;Laerm;56829;52.274;4.770;2023-07-16T00:37:55;38.08;35.75;47.27;;
66450;Laerm;56829;52.274;4.770;2023-07-16T00:38:05;39.38;35.75;47.48;;
66450;Laerm;56829;52.274;4.770;2023-07-16T00:38:18;43.39;37.47;50.95;;
66450;Laerm;56829;52.274;4.770;2023-07-16T00:38:28;40.98;35.16;53.53;;
66450;Laerm;56829;52.274;4.770;2023-07-16T00:38:38;36.15;34.25;47.28;;
66450;Laerm;56829;52.274;4.770;2023-07-16T00:38:50;41.18;34.11;50.09;;
66450;Laerm;56829;52.274;4.770;2023-07-16T00:39:00;38.76;36.18;48.15;;
66450;Laerm;56829;52.274;4.770;2023-07-16T00:39:10;38.14;34.55;46.19;;
66450;Laerm;56829;52.274;4.770;2023-07-16T00:39:21;39.61;35.19;45.45;;
66450;Laerm;56829;52.274;4.770;2023-07-16T00:39:31;40.39;35.88;45.45;;
66450;Laerm;56829;52.274;4.770;2023-07-16T00:39:41;47.99;40.42;53.85;;
66450;Laerm;56829;52.274;4.770;2023-07-16T00:39:51;42.36;39.58;47.27;;
66450;Laerm;56829;52.274;4.770;2023-07-16T00:40:01;41.57;38.39;48.20;;
66450;Laerm;56829;52.274;4.770;2023-07-16T00:40:12;47.07;42.21;56.53;;
66450;Laerm;56829;52.274;4.770;2023-07-16T00:40:22;51.38;43.94;59.13;;
66450;Laerm;56829;52.274;4.770;2023-07-16T00:40:32;51.97;40.73;60.04;;
66450;Laerm;56829;52.274;4.770;2023-07-16T00:40:42;39.77;36.43;44.64;;
66450;Laerm;56829;52.274;4.770;2023-07-16T00:40:52;40.05;36.23;46.51;;
66450;Laerm;56829;52.274;4.770;2023-07-16T00:41:03;43.13;35.88;53.51;;
66450;Laerm;56829;52.274;4.770;2023-07-16T00:41:13;43.30;36.24;50.30;;
66450;Laerm;56829;52.274;4.770;2023-07-16T00:41:24;40.37;35.05;47.78;;
66450;Laerm;56829;52.274;4.770;2023-07-16T00:41:34;39.52;34.95;48.64;;
66450;Laerm;56829;52.274;4.770;2023-07-16T00:41:44;38.47;33.70;46.48;;
66450;Laerm;56829;52.274;4.770;2023-07-16T00:41:55;39.31;33.18;48.28;;
66450;Laerm;56829;52.274;4.770;2023-07-16T00:42:05;41.02;33.57;49.03;;
66450;Laerm;56829;52.274;4.770;2023-07-16T00:42:15;38.77;33.49;47.25;;
66450;Laerm;56829;52.274;4.770;2023-07-16T00:42:26;39.03;34.49;44.61;;
66450;Laerm;56829;52.274;4.770;2023-07-16T00:42:36;42.05;34.58;49.86;;
66450;Laerm;56829;52.274;4.770;2023-07-16T00:42:46;49.64;41.58;55.26;;
66450;Laerm;56829;52.274;4.770;2023-07-16T00:42:56;56.62;42.45;64.69;;
66450;Laerm;56829;52.274;4.770;2023-07-16T00:43:06;41.50;36.78;54.21;;
66450;Laerm;56829;52.274;4.770;2023-07-16T00:43:17;41.68;36.83;46.08;;
66450;Laerm;56829;52.274;4.770;2023-07-16T00:43:27;48.92;40.89;57.56;;
66450;Laerm;56829;52.274;4.770;2023-07-16T00:43:37;39.23;35.55;44.54;;
66450;Laerm;56829;52.274;4.770;2023-07-16T00:43:47;37.58;34.49;45.24;;
66450;Laerm;56829;52.274;4.770;2023-07-16T00:43:57;41.30;36.97;50.45;;
66450;Laerm;56829;52.274;4.770;2023-07-16T00:44:08;42.32;36.33;52.14;;
66450;Laerm;56829;52.274;4.770;2023-07-16T00:44:18;36.26;34.02;42.70;;
66450;Laerm;56829;52.274;4.770;2023-07-16T00:44:28;38.06;36.08;40.71;;
66450;Laerm;56829;52.274;4.770;2023-07-16T00:44:38;41.17;37.86;49.58;;
66450;Laerm;56829;52.274;4.770;2023-07-16T00:44:48;44.48;39.37;52.62;;
66450;Laerm;56829;52.274;4.770;2023-07-16T00:44:59;45.47;37.48;54.70;;
66450;Laerm;56829;52.274;4.770;2023-07-16T00:45:11;40.27;34.41;49.40;;
66450;Laerm;56829;52.274;4.770;2023-07-16T00:45:22;39.50;34.63;46.86;;
66450;Laerm;56829;52.274;4.770;2023-07-16T00:45:32;41.98;36.26;49.25;;
66450;Laerm;56829;52.274;4.770;2023-07-16T00:45:43;37.70;34.42;47.05;;
66450;Laerm;56829;52.274;4.770;2023-07-16T00:45:54;39.45;34.34;46.04;;
66450;Laerm;56829;52.274;4.770;2023-07-16T00:46:05;42.37;37.00;48.09;;
66450;Laerm;56829;52.274;4.770;2023-07-16T00:46:15;44.84;39.43;49.60;;
66450;Laerm;56829;52.274;4.770;2023-07-16T00:46:25;53.14;40.89;62.76;;
66450;Laerm;56829;52.274;4.770;2023-07-16T00:46:36;41.60;35.62;48.73;;
66450;Laerm;56829;52.274;4.770;2023-07-16T00:46:46;40.84;34.66;50.10;;
66450;Laerm;56829;52.274;4.770;2023-07-16T00:46:56;40.60;35.08;46.80;;
66450;Laerm;56829;52.274;4.770;2023-07-16T00:47:07;41.52;34.02;48.11;;
66450;Laerm;56829;52.274;4.770;2023-07-16T00:47:18;37.84;35.00;46.38;;
66450;Laerm;56829;52.274;4.770;2023-07-16T00:47:28;37.83;34.95;42.03;;
66450;Laerm;56829;52.274;4.770;2023-07-16T00:47:39;46.65;38.94;53.89;;
66450;Laerm;56829;52.274;4.770;2023-07-16T00:47:49;41.75;35.27;48.59;;
66450;Laerm;56829;52.274;4.770;2023-07-16T00:47:59;42.81;35.91;50.39;;
66450;Laerm;56829;52.274;4.770;2023-07-16T00:48:10;38.12;35.43;43.65;;
66450;Laerm;56829;52.274;4.770;2023-07-16T00:48:20;35.59;33.71;38.81;;
66450;Laerm;56829;52.274;4.770;2023-07-16T00:48:30;34.93;32.83;36.54;;
66450;Laerm;56829;52.274;4.770;2023-07-16T00:48:40;34.95;33.14;37.41;;
66450;Laerm;56829;52.274;4.770;2023-07-16T00:48:51;35.64;33.71;38.80;;
66450;Laerm;56829;52.274;4.770;2023-07-16T00:49:02;36.70;34.41;41.03;;
66450;Laerm;56829;52.274;4.770;2023-07-16T00:49:12;41.21;36.60;47.21;;
66450;Laerm;56829;52.274;4.770;2023-07-16T00:49:23;44.51;39.06;49.42;;
66450;Laerm;56829;52.274;4.770;2023-07-16T00:49:33;40.13;35.59;46.66;;
66450;Laerm;56829;52.274;4.770;2023-07-16T00:49:44;42.54;35.28;50.60;;
66450;Laerm;56829;52.274;4.770;2023-07-16T00:49:54;39.16;34.59;45.52;;
66450;Laerm;56829;52.274;4.770;2023-07-16T00:50:05;38.53;36.01;41.31;;
66450;Laerm;56829;52.274;4.770;2023-07-16T00:50:15;46.31;38.91;55.44;;
66450;Laerm;56829;52.274;4.770;2023-07-16T00:50:25;40.11;36.77;49.45;;
66450;Laerm;56829;52.274;4.770;2023-07-16T00:50:36;52.97;38.92;67.12;;
66450;Laerm;56829;52.274;4.770;2023-07-16T00:50:49;43.98;37.82;53.24;;
66450;Laerm;56829;52.274;4.770;2023-07-16T00:51:01;37.67;34.69;44.80;;
66450;Laerm;56829;52.274;4.770;2023-07-16T00:51:11;40.65;35.35;48.52;;
66450;Laerm;56829;52.274;4.770;2023-07-16T00:51:23;47.06;37.11;55.56;;
66450;Laerm;56829;52.274;4.770;2023-07-16T00:51:34;40.91;35.94;48.39;;
66450;Laerm;56829;52.274;4.770;2023-07-16T00:51:44;44.21;37.18;52.79;;
66450;Laerm;56829;52.274;4.770;2023-07-16T00:51:54;43.67;38.16;51.83;;
66450;Laerm;56829;52.274;4.770;2023-07-16T00:52:05;42.14;37.06;50.24;;
66450;Laerm;56829;52.274;4.770;2023-07-16T00:52:18;36.79;34.79;40.69;;
66450;Laerm;56829;52.274;4.770;2023-07-16T00:52:28;37.96;34.89;44.39;;
66450;Laerm;56829;52.274;4.770;2023-07-16T00:52:39;41.47;35.86;47.64;;
66450;Laerm;56829;52.274;4.770;2023-07-16T00:52:49;43.31;37.33;49.09;;
66450;Laerm;56829;52.274;4.770;2023-07-16T00:53:00;39.08;36.29;45.10;;
66450;Laerm;56829;52.274;4.770;2023-07-16T00:53:11;38.46;35.98;40.56;;
66450;Laerm;56829;52.274;4.770;2023-07-16T00:53:22;36.51;34.27;41.96;;
66450;Laerm;56829;52.274;4.770;2023-07-16T00:53:32;36.52;34.08;39.87;;
66450;Laerm;56829;52.274;4.770;2023-07-16T00:53:43;50.07;36.91;59.75;;
66450;Laerm;56829;52.274;4.770;2023-07-16T00:53:54;43.72;37.26;52.20;;
66450;Laerm;56829;52.274;4.770;2023-07-16T00:54:04;40.56;37.27;45.78;;
66450;Laerm;56829;52.274;4.770;2023-07-16T00:54:15;39.61;35.37;49.18;;
66450;Laerm;56829;52.274;4.770;2023-07-16T00:54:25;37.06;34.44;41.99;;
66450;Laerm;56829;52.274;4.770;2023-07-16T00:54:36;38.60;34.35;43.87;;
66450;Laerm;56829;52.274;4.770;2023-07-16T00:54:47;37.52;33.69;44.94;;
66450;Laerm;56829;52.274;4.770;2023-07-16T00:54:58;35.97;34.23;39.10;;
66450;Laerm;56829;52.274;4.770;2023-07-16T00:55:08;37.12;35.24;39.84;;
66450;Laerm;56829;52.274;4.770;2023-07-16T00:55:19;37.52;35.88;39.60;;
66450;Laerm;56829;52.274;4.770;2023-07-16T00:55:29;44.91;37.09;52.17;;
66450;Laerm;56829;52.274;4.770;2023-07-16T00:55:40;41.27;35.51;50.61;;
66450;Laerm;56829;52.274;4.770;2023-07-16T00:55:50;36.19;34.30;38.92;;
66450;Laerm;56829;52.274;4.770;2023-07-16T00:56:00;38.43;34.69;43.78;;
66450;Laerm;56829;52.274;4.770;2023-07-16T00:56:11;47.17;37.43;55.02;;
66450;Laerm;56829;52.274;4.770;2023-07-16T00:56:21;37.08;35.01;39.66;;
66450;Laerm;56829;52.274;4.770;2023-07-16T00:56:32;35.89;34.21;38.32;;
66450;Laerm;56829;52.274;4.770;2023-07-16T00:56:42;36.71;33.65;42.10;;
66450;Laerm;56829;52.274;4.770;2023-07-16T00:56:53;38.46;35.16;48.69;;
66450;Laerm;56829;52.274;4.770;2023-07-16T00:57:03;37.23;34.92;41.37;;
66450;Laerm;56829;52.274;4.770;2023-07-16T00:57:13;46.02;36.80;54.45;;
66450;Laerm;56829;52.274;4.770;2023-07-16T00:57:24;46.80;39.15;53.28;;
66450;Laerm;56829;52.274;4.770;2023-07-16T00:57:34;40.56;34.42;53.95;;
66450;Laerm;56829;52.274;4.770;2023-07-16T00:57:44;35.99;34.37;38.20;;
66450;Laerm;56829;52.274;4.770;2023-07-16T00:57:55;38.42;35.82;48.27;;
66450;Laerm;56829;52.274;4.770;2023-07-16T00:58:08;40.69;36.67;48.34;;
66450;Laerm;56829;52.274;4.770;2023-07-16T00:58:18;43.48;38.25;50.46;;